sensor_id;sensor_type;location;lat;lon;timestamp;P1;durP1;ratioP1;P2;durP2;ratioP2
12625;SDS011;6378;42.684;23.372;2022-10-24T00:01:49;30.77;;;21.17;;
12625;SDS011;6378;42.684;23.372;2022-10-24T00:04:15;35.78;;;22.88;;
12625;SDS011;6378;42.684;23.372;2022-10-24T00:06:40;37.42;;;25.02;;
12625;SDS011;6378;42.684;23.372;2022-10-24T00:09:06;44.42;;;26.15;;
12625;SDS011;6378;42.684;23.372;2022-10-24T00:11:32;36.20;;;22.38;;
12625;SDS011;6378;42.684;23.372;2022-10-24T00:13:58;32.83;;;22.37;;
12625;SDS011;6378;42.684;23.372;2022-10-24T00:16:25;39.87;;;26.50;;
12625;SDS011;6378;42.684;23.372;2022-10-24T00:18:51;38.70;;;26.70;;
12625;SDS011;6378;42.684;23.372;2022-10-24T00:21:17;40.17;;;25.67;;
12625;SDS011;6378;42.684;23.372;2022-10-24T00:23:42;39.25;;;26.20;;
12625;SDS011;6378;42.684;23.372;2022-10-24T00:26:09;38.30;;;26.67;;
12625;SDS011;6378;42.684;23.372;2022-10-24T00:28:35;37.77;;;25.53;;
12625;SDS011;6378;42.684;23.372;2022-10-24T00:31:01;39.97;;;25.40;;
12625;SDS011;6378;42.684;23.372;2022-10-24T00:33:27;34.57;;;22.97;;
12625;SDS011;6378;42.684;23.372;2022-10-24T00:35:53;30.13;;;21.77;;
12625;SDS011;6378;42.684;23.372;2022-10-24T00:38:18;35.77;;;22.27;;
12625;SDS011;6378;42.684;23.372;2022-10-24T00:40:44;27.37;;;19.10;;
12625;SDS011;6378;42.684;23.372;2022-10-24T00:43:16;26.37;;;18.70;;
12625;SDS011;6378;42.684;23.372;2022-10-24T00:51:15;27.30;;;18.53;;
12625;SDS011;6378;42.684;23.372;2022-10-24T00:53:46;28.80;;;20.03;;
12625;SDS011;6378;42.684;23.372;2022-10-24T00:56:15;36.87;;;25.57;;
12625;SDS011;6378;42.684;23.372;2022-10-24T00:58:44;32.95;;;24.10;;
12625;SDS011;6378;42.684;23.372;2022-10-24T01:01:12;32.80;;;21.83;;
12625;SDS011;6378;42.684;23.372;2022-10-24T01:03:38;33.22;;;22.52;;
12625;SDS011;6378;42.684;23.372;2022-10-24T01:11:11;33.50;;;22.03;;
12625;SDS011;6378;42.684;23.372;2022-10-24T01:16:47;30.70;;;21.87;;
12625;SDS011;6378;42.684;23.372;2022-10-24T01:19:25;29.73;;;21.60;;
12625;SDS011;6378;42.684;23.372;2022-10-24T01:22:31;33.40;;;21.40;;
12625;SDS011;6378;42.684;23.372;2022-10-24T01:25:13;32.33;;;22.07;;
12625;SDS011;6378;42.684;23.372;2022-10-24T01:30:19;32.17;;;21.97;;
12625;SDS011;6378;42.684;23.372;2022-10-24T01:43:28;30.50;;;20.97;;
12625;SDS011;6378;42.684;23.372;2022-10-24T01:46:05;34.77;;;21.53;;
12625;SDS011;6378;42.684;23.372;2022-10-24T01:48:37;32.30;;;21.47;;
12625;SDS011;6378;42.684;23.372;2022-10-24T01:51:06;32.50;;;21.20;;
12625;SDS011;6378;42.684;23.372;2022-10-24T01:53:35;29.83;;;20.80;;
12625;SDS011;6378;42.684;23.372;2022-10-24T01:56:02;35.03;;;21.73;;
12625;SDS011;6378;42.684;23.372;2022-10-24T01:58:28;31.53;;;22.63;;
12625;SDS011;6378;42.684;23.372;2022-10-24T02:00:54;32.83;;;20.25;;
12625;SDS011;6378;42.684;23.372;2022-10-24T02:03:34;30.52;;;19.88;;
12625;SDS011;6378;42.684;23.372;2022-10-24T02:06:02;27.90;;;18.90;;
12625;SDS011;6378;42.684;23.372;2022-10-24T02:08:38;28.77;;;20.33;;
12625;SDS011;6378;42.684;23.372;2022-10-24T02:11:06;33.22;;;20.15;;
12625;SDS011;6378;42.684;23.372;2022-10-24T02:16:17;28.60;;;18.90;;
12625;SDS011;6378;42.684;23.372;2022-10-24T02:18:44;26.77;;;18.03;;
12625;SDS011;6378;42.684;23.372;2022-10-24T02:26:56;29.47;;;18.43;;
12625;SDS011;6378;42.684;23.372;2022-10-24T02:29:46;24.93;;;16.80;;
12625;SDS011;6378;42.684;23.372;2022-10-24T02:32:32;24.03;;;16.63;;
12625;SDS011;6378;42.684;23.372;2022-10-24T02:35:05;24.30;;;17.93;;
12625;SDS011;6378;42.684;23.372;2022-10-24T02:37:33;27.47;;;18.30;;
12625;SDS011;6378;42.684;23.372;2022-10-24T02:40:02;27.37;;;18.17;;
12625;SDS011;6378;42.684;23.372;2022-10-24T02:42:31;24.67;;;17.87;;
12625;SDS011;6378;42.684;23.372;2022-10-24T02:44:58;27.47;;;17.67;;
12625;SDS011;6378;42.684;23.372;2022-10-24T02:47:24;26.03;;;19.23;;
12625;SDS011;6378;42.684;23.372;2022-10-24T02:49:52;28.20;;;18.48;;
12625;SDS011;6378;42.684;23.372;2022-10-24T02:52:18;22.97;;;16.87;;
12625;SDS011;6378;42.684;23.372;2022-10-24T02:54:44;23.50;;;17.23;;
12625;SDS011;6378;42.684;23.372;2022-10-24T02:57:20;27.27;;;17.60;;
12625;SDS011;6378;42.684;23.372;2022-10-24T02:59:48;24.13;;;17.77;;
12625;SDS011;6378;42.684;23.372;2022-10-24T03:02:13;31.47;;;18.70;;
12625;SDS011;6378;42.684;23.372;2022-10-24T03:04:39;26.23;;;17.63;;
12625;SDS011;6378;42.684;23.372;2022-10-24T03:07:04;25.53;;;18.07;;
12625;SDS011;6378;42.684;23.372;2022-10-24T03:09:31;30.57;;;18.17;;
12625;SDS011;6378;42.684;23.372;2022-10-24T03:11:57;25.77;;;17.67;;
12625;SDS011;6378;42.684;23.372;2022-10-24T03:14:23;25.70;;;17.60;;
12625;SDS011;6378;42.684;23.372;2022-10-24T03:16:48;27.38;;;17.55;;
12625;SDS011;6378;42.684;23.372;2022-10-24T03:19:14;25.17;;;18.17;;
12625;SDS011;6378;42.684;23.372;2022-10-24T03:21:39;28.33;;;21.10;;
12625;SDS011;6378;42.684;23.372;2022-10-24T03:24:05;26.03;;;18.50;;
12625;SDS011;6378;42.684;23.372;2022-10-24T03:26:31;26.30;;;19.07;;
12625;SDS011;6378;42.684;23.372;2022-10-24T03:28:56;31.90;;;18.30;;
12625;SDS011;6378;42.684;23.372;2022-10-24T03:31:22;29.90;;;18.42;;
12625;SDS011;6378;42.684;23.372;2022-10-24T03:33:47;30.43;;;19.90;;
12625;SDS011;6378;42.684;23.372;2022-10-24T03:36:13;27.13;;;18.43;;
12625;SDS011;6378;42.684;23.372;2022-10-24T03:38:38;30.90;;;19.47;;
12625;SDS011;6378;42.684;23.372;2022-10-24T03:41:03;27.47;;;18.00;;
12625;SDS011;6378;42.684;23.372;2022-10-24T03:43:29;31.47;;;19.90;;
12625;SDS011;6378;42.684;23.372;2022-10-24T03:45:54;30.63;;;19.23;;
12625;SDS011;6378;42.684;23.372;2022-10-24T03:48:20;27.23;;;19.30;;
12625;SDS011;6378;42.684;23.372;2022-10-24T03:50:45;25.17;;;17.77;;
12625;SDS011;6378;42.684;23.372;2022-10-24T03:53:11;28.70;;;19.67;;
12625;SDS011;6378;42.684;23.372;2022-10-24T03:55:36;34.23;;;25.47;;
12625;SDS011;6378;42.684;23.372;2022-10-24T03:58:02;38.90;;;26.47;;
12625;SDS011;6378;42.684;23.372;2022-10-24T04:00:27;35.63;;;23.60;;
12625;SDS011;6378;42.684;23.372;2022-10-24T04:02:53;31.90;;;23.27;;
12625;SDS011;6378;42.684;23.372;2022-10-24T04:05:19;39.80;;;26.53;;
12625;SDS011;6378;42.684;23.372;2022-10-24T04:07:45;37.60;;;25.10;;
12625;SDS011;6378;42.684;23.372;2022-10-24T04:10:10;32.83;;;22.37;;
12625;SDS011;6378;42.684;23.372;2022-10-24T04:12:36;38.38;;;23.50;;
12625;SDS011;6378;42.684;23.372;2022-10-24T04:15:02;33.45;;;22.83;;
12625;SDS011;6378;42.684;23.372;2022-10-24T04:17:28;37.30;;;25.17;;
12625;SDS011;6378;42.684;23.372;2022-10-24T04:19:53;31.83;;;21.85;;
12625;SDS011;6378;42.684;23.372;2022-10-24T04:22:19;45.70;;;32.60;;
12625;SDS011;6378;42.684;23.372;2022-10-24T04:24:44;42.28;;;25.75;;
12625;SDS011;6378;42.684;23.372;2022-10-24T04:27:10;35.92;;;24.83;;
12625;SDS011;6378;42.684;23.372;2022-10-24T04:29:35;34.13;;;23.27;;
12625;SDS011;6378;42.684;23.372;2022-10-24T04:32:01;31.50;;;22.53;;
12625;SDS011;6378;42.684;23.372;2022-10-24T04:34:28;35.43;;;24.47;;
12625;SDS011;6378;42.684;23.372;2022-10-24T04:36:53;37.17;;;25.90;;
12625;SDS011;6378;42.684;23.372;2022-10-24T04:39:18;41.40;;;26.70;;
12625;SDS011;6378;42.684;23.372;2022-10-24T04:41:44;47.67;;;31.30;;
12625;SDS011;6378;42.684;23.372;2022-10-24T04:44:10;42.87;;;27.10;;
12625;SDS011;6378;42.684;23.372;2022-10-24T04:46:36;41.87;;;27.70;;
12625;SDS011;6378;42.684;23.372;2022-10-24T04:49:01;41.47;;;27.87;;
12625;SDS011;6378;42.684;23.372;2022-10-24T04:51:27;41.00;;;27.67;;
12625;SDS011;6378;42.684;23.372;2022-10-24T04:53:52;44.20;;;28.30;;
12625;SDS011;6378;42.684;23.372;2022-10-24T04:56:18;42.67;;;27.00;;
12625;SDS011;6378;42.684;23.372;2022-10-24T04:58:44;35.00;;;24.63;;
12625;SDS011;6378;42.684;23.372;2022-10-24T05:01:09;35.00;;;22.87;;
12625;SDS011;6378;42.684;23.372;2022-10-24T05:03:35;35.30;;;23.57;;
12625;SDS011;6378;42.684;23.372;2022-10-24T05:06:01;40.27;;;25.27;;
12625;SDS011;6378;42.684;23.372;2022-10-24T05:08:26;36.80;;;23.33;;
12625;SDS011;6378;42.684;23.372;2022-10-24T05:10:52;32.43;;;23.37;;
12625;SDS011;6378;42.684;23.372;2022-10-24T05:13:18;29.17;;;19.73;;
12625;SDS011;6378;42.684;23.372;2022-10-24T05:15:43;37.13;;;23.67;;
12625;SDS011;6378;42.684;23.372;2022-10-24T05:18:09;40.10;;;21.60;;
12625;SDS011;6378;42.684;23.372;2022-10-24T05:20:34;38.40;;;23.17;;
12625;SDS011;6378;42.684;23.372;2022-10-24T05:23:00;31.77;;;20.67;;
12625;SDS011;6378;42.684;23.372;2022-10-24T05:25:25;33.10;;;20.77;;
12625;SDS011;6378;42.684;23.372;2022-10-24T05:27:51;40.83;;;22.10;;
12625;SDS011;6378;42.684;23.372;2022-10-24T05:30:16;28.70;;;16.88;;
12625;SDS011;6378;42.684;23.372;2022-10-24T05:32:42;28.85;;;19.15;;
12625;SDS011;6378;42.684;23.372;2022-10-24T05:35:08;24.63;;;16.58;;
12625;SDS011;6378;42.684;23.372;2022-10-24T05:37:33;26.90;;;17.38;;
12625;SDS011;6378;42.684;23.372;2022-10-24T05:39:59;31.52;;;16.20;;
12625;SDS011;6378;42.684;23.372;2022-10-24T05:42:24;25.02;;;16.95;;
12625;SDS011;6378;42.684;23.372;2022-10-24T05:44:50;24.60;;;14.63;;
12625;SDS011;6378;42.684;23.372;2022-10-24T05:47:15;26.40;;;16.77;;
12625;SDS011;6378;42.684;23.372;2022-10-24T05:49:41;27.70;;;16.35;;
12625;SDS011;6378;42.684;23.372;2022-10-24T05:52:07;26.38;;;15.32;;
12625;SDS011;6378;42.684;23.372;2022-10-24T05:54:32;27.35;;;15.13;;
12625;SDS011;6378;42.684;23.372;2022-10-24T05:56:58;22.45;;;15.45;;
12625;SDS011;6378;42.684;23.372;2022-10-24T05:59:23;25.63;;;17.48;;
12625;SDS011;6378;42.684;23.372;2022-10-24T06:01:49;34.08;;;23.05;;
12625;SDS011;6378;42.684;23.372;2022-10-24T06:04:14;30.50;;;18.33;;
12625;SDS011;6378;42.684;23.372;2022-10-24T06:06:40;32.20;;;21.23;;
12625;SDS011;6378;42.684;23.372;2022-10-24T06:09:07;46.78;;;24.50;;
12625;SDS011;6378;42.684;23.372;2022-10-24T06:11:34;36.78;;;22.77;;
12625;SDS011;6378;42.684;23.372;2022-10-24T06:13:59;30.58;;;19.42;;
12625;SDS011;6378;42.684;23.372;2022-10-24T06:16:26;33.30;;;21.17;;
12625;SDS011;6378;42.684;23.372;2022-10-24T06:18:54;33.08;;;20.05;;
12625;SDS011;6378;42.684;23.372;2022-10-24T06:21:19;30.70;;;19.73;;
12625;SDS011;6378;42.684;23.372;2022-10-24T06:23:45;32.83;;;21.73;;
12625;SDS011;6378;42.684;23.372;2022-10-24T06:26:10;33.22;;;19.40;;
12625;SDS011;6378;42.684;23.372;2022-10-24T06:28:38;51.53;;;31.13;;
12625;SDS011;6378;42.684;23.372;2022-10-24T06:31:03;28.73;;;18.05;;
12625;SDS011;6378;42.684;23.372;2022-10-24T06:33:29;28.92;;;17.20;;
12625;SDS011;6378;42.684;23.372;2022-10-24T06:35:59;36.85;;;20.25;;
12625;SDS011;6378;42.684;23.372;2022-10-24T06:38:26;24.45;;;17.67;;
12625;SDS011;6378;42.684;23.372;2022-10-24T06:40:52;26.27;;;18.52;;
12625;SDS011;6378;42.684;23.372;2022-10-24T06:43:17;26.80;;;18.27;;
12625;SDS011;6378;42.684;23.372;2022-10-24T06:45:45;28.63;;;18.08;;
12625;SDS011;6378;42.684;23.372;2022-10-24T06:48:11;31.33;;;18.90;;
12625;SDS011;6378;42.684;23.372;2022-10-24T06:50:37;27.80;;;17.67;;
12625;SDS011;6378;42.684;23.372;2022-10-24T06:53:07;31.38;;;17.75;;
12625;SDS011;6378;42.684;23.372;2022-10-24T06:55:33;28.90;;;17.80;;
12625;SDS011;6378;42.684;23.372;2022-10-24T06:58:02;23.45;;;17.48;;
12625;SDS011;6378;42.684;23.372;2022-10-24T07:00:30;38.75;;;18.52;;
12625;SDS011;6378;42.684;23.372;2022-10-24T07:02:56;32.30;;;17.85;;
12625;SDS011;6378;42.684;23.372;2022-10-24T07:05:23;33.35;;;18.23;;
12625;SDS011;6378;42.684;23.372;2022-10-24T07:07:49;30.25;;;17.55;;
12625;SDS011;6378;42.684;23.372;2022-10-24T07:10:14;27.00;;;17.90;;
12625;SDS011;6378;42.684;23.372;2022-10-24T07:12:40;21.58;;;16.63;;
12625;SDS011;6378;42.684;23.372;2022-10-24T07:15:07;24.45;;;17.13;;
12625;SDS011;6378;42.684;23.372;2022-10-24T07:17:42;25.95;;;16.70;;
12625;SDS011;6378;42.684;23.372;2022-10-24T07:20:09;22.05;;;16.63;;
12625;SDS011;6378;42.684;23.372;2022-10-24T07:22:36;22.80;;;15.73;;
12625;SDS011;6378;42.684;23.372;2022-10-24T07:25:03;25.35;;;16.27;;
12625;SDS011;6378;42.684;23.372;2022-10-24T07:27:30;24.13;;;18.45;;
12625;SDS011;6378;42.684;23.372;2022-10-24T07:29:56;23.33;;;17.65;;
12625;SDS011;6378;42.684;23.372;2022-10-24T07:32:22;23.42;;;17.02;;
12625;SDS011;6378;42.684;23.372;2022-10-24T07:34:48;26.98;;;17.17;;
12625;SDS011;6378;42.684;23.372;2022-10-24T07:37:14;28.48;;;17.85;;
12625;SDS011;6378;42.684;23.372;2022-10-24T07:39:40;28.42;;;17.30;;
12625;SDS011;6378;42.684;23.372;2022-10-24T07:42:05;21.08;;;17.40;;
12625;SDS011;6378;42.684;23.372;2022-10-24T07:44:30;27.77;;;18.10;;
12625;SDS011;6378;42.684;23.372;2022-10-24T07:46:56;23.58;;;17.55;;
12625;SDS011;6378;42.684;23.372;2022-10-24T07:49:21;26.65;;;18.55;;
12625;SDS011;6378;42.684;23.372;2022-10-24T07:51:47;30.27;;;18.42;;
12625;SDS011;6378;42.684;23.372;2022-10-24T07:54:12;30.55;;;18.83;;
12625;SDS011;6378;42.684;23.372;2022-10-24T07:56:38;25.38;;;18.77;;
12625;SDS011;6378;42.684;23.372;2022-10-24T07:59:03;27.30;;;20.20;;
12625;SDS011;6378;42.684;23.372;2022-10-24T08:01:29;30.98;;;19.30;;
12625;SDS011;6378;42.684;23.372;2022-10-24T08:03:54;31.40;;;20.60;;
12625;SDS011;6378;42.684;23.372;2022-10-24T08:06:21;27.83;;;18.60;;
12625;SDS011;6378;42.684;23.372;2022-10-24T08:08:52;27.05;;;18.35;;
12625;SDS011;6378;42.684;23.372;2022-10-24T08:11:19;29.63;;;20.23;;
12625;SDS011;6378;42.684;23.372;2022-10-24T08:13:47;27.73;;;20.58;;
12625;SDS011;6378;42.684;23.372;2022-10-24T08:16:14;29.40;;;19.80;;
12625;SDS011;6378;42.684;23.372;2022-10-24T08:18:41;28.25;;;18.58;;
12625;SDS011;6378;42.684;23.372;2022-10-24T08:21:08;27.70;;;19.33;;
12625;SDS011;6378;42.684;23.372;2022-10-24T08:23:36;24.80;;;17.35;;
12625;SDS011;6378;42.684;23.372;2022-10-24T08:26:08;22.98;;;16.23;;
12625;SDS011;6378;42.684;23.372;2022-10-24T08:28:36;23.45;;;17.35;;
12625;SDS011;6378;42.684;23.372;2022-10-24T08:31:03;21.85;;;15.65;;
12625;SDS011;6378;42.684;23.372;2022-10-24T08:33:31;24.40;;;16.20;;
12625;SDS011;6378;42.684;23.372;2022-10-24T08:35:57;26.70;;;17.02;;
12625;SDS011;6378;42.684;23.372;2022-10-24T08:38:25;17.55;;;13.88;;
12625;SDS011;6378;42.684;23.372;2022-10-24T08:40:51;20.80;;;13.95;;
12625;SDS011;6378;42.684;23.372;2022-10-24T08:43:17;19.92;;;14.32;;
12625;SDS011;6378;42.684;23.372;2022-10-24T08:48:20;22.02;;;15.13;;
12625;SDS011;6378;42.684;23.372;2022-10-24T08:50:52;21.83;;;15.60;;
12625;SDS011;6378;42.684;23.372;2022-10-24T08:53:24;22.48;;;15.50;;
12625;SDS011;6378;42.684;23.372;2022-10-24T08:55:54;19.25;;;15.10;;
12625;SDS011;6378;42.684;23.372;2022-10-24T08:58:25;22.98;;;15.00;;
12625;SDS011;6378;42.684;23.372;2022-10-24T09:00:56;17.25;;;13.57;;
12625;SDS011;6378;42.684;23.372;2022-10-24T09:03:43;19.95;;;13.57;;
12625;SDS011;6378;42.684;23.372;2022-10-24T09:06:12;17.75;;;12.98;;
12625;SDS011;6378;42.684;23.372;2022-10-24T09:14:13;18.90;;;12.63;;
12625;SDS011;6378;42.684;23.372;2022-10-24T09:16:51;14.40;;;11.85;;
12625;SDS011;6378;42.684;23.372;2022-10-24T09:19:21;17.95;;;11.68;;
12625;SDS011;6378;42.684;23.372;2022-10-24T09:21:50;18.90;;;12.25;;
12625;SDS011;6378;42.684;23.372;2022-10-24T09:24:30;18.55;;;11.93;;
12625;SDS011;6378;42.684;23.372;2022-10-24T09:27:01;13.60;;;10.82;;
12625;SDS011;6378;42.684;23.372;2022-10-24T09:29:30;14.77;;;10.82;;
12625;SDS011;6378;42.684;23.372;2022-10-24T09:31:57;16.02;;;10.05;;
12625;SDS011;6378;42.684;23.372;2022-10-24T09:34:23;13.60;;;9.90;;
12625;SDS011;6378;42.684;23.372;2022-10-24T09:36:49;11.57;;;9.10;;
12625;SDS011;6378;42.684;23.372;2022-10-24T09:39:23;14.23;;;8.55;;
12625;SDS011;6378;42.684;23.372;2022-10-24T09:41:53;11.35;;;9.27;;
12625;SDS011;6378;42.684;23.372;2022-10-24T09:44:38;13.93;;;9.27;;
12625;SDS011;6378;42.684;23.372;2022-10-24T09:47:25;11.88;;;9.25;;
12625;SDS011;6378;42.684;23.372;2022-10-24T09:49:53;13.57;;;8.95;;
12625;SDS011;6378;42.684;23.372;2022-10-24T09:52:20;11.30;;;8.63;;
12625;SDS011;6378;42.684;23.372;2022-10-24T09:57:44;12.85;;;7.22;;
12625;SDS011;6378;42.684;23.372;2022-10-24T10:03:08;9.48;;;7.80;;
12625;SDS011;6378;42.684;23.372;2022-10-24T10:08:11;14.15;;;8.63;;
12625;SDS011;6378;42.684;23.372;2022-10-24T10:10:54;13.57;;;8.48;;
12625;SDS011;6378;42.684;23.372;2022-10-24T10:13:22;12.63;;;7.30;;
12625;SDS011;6378;42.684;23.372;2022-10-24T10:15:52;9.10;;;6.95;;
12625;SDS011;6378;42.684;23.372;2022-10-24T10:23:52;11.20;;;7.25;;
12625;SDS011;6378;42.684;23.372;2022-10-24T10:26:23;10.02;;;7.05;;
12625;SDS011;6378;42.684;23.372;2022-10-24T10:28:54;9.85;;;7.28;;
12625;SDS011;6378;42.684;23.372;2022-10-24T10:31:32;11.75;;;7.82;;
12625;SDS011;6378;42.684;23.372;2022-10-24T10:34:22;10.52;;;6.88;;
12625;SDS011;6378;42.684;23.372;2022-10-24T10:39:42;15.07;;;8.43;;
12625;SDS011;6378;42.684;23.372;2022-10-24T10:42:26;9.00;;;7.50;;
12625;SDS011;6378;42.684;23.372;2022-10-24T10:50:25;11.23;;;7.68;;
12625;SDS011;6378;42.684;23.372;2022-10-24T10:53:04;11.63;;;7.95;;
12625;SDS011;6378;42.684;23.372;2022-10-24T10:56:27;10.50;;;7.88;;
12625;SDS011;6378;42.684;23.372;2022-10-24T10:58:51;10.15;;;6.70;;
12625;SDS011;6378;42.684;23.372;2022-10-24T11:04:03;13.40;;;7.63;;
12625;SDS011;6378;42.684;23.372;2022-10-24T11:09:32;12.63;;;7.47;;
12625;SDS011;6378;42.684;23.372;2022-10-24T11:12:24;14.13;;;7.80;;
12625;SDS011;6378;42.684;23.372;2022-10-24T11:15:02;11.85;;;7.32;;
12625;SDS011;6378;42.684;23.372;2022-10-24T11:17:41;13.23;;;7.40;;
12625;SDS011;6378;42.684;23.372;2022-10-24T11:22:54;12.57;;;8.00;;
12625;SDS011;6378;42.684;23.372;2022-10-24T11:25:37;13.25;;;7.75;;
12625;SDS011;6378;42.684;23.372;2022-10-24T11:28:26;12.85;;;7.30;;
12625;SDS011;6378;42.684;23.372;2022-10-24T11:33:44;9.43;;;7.35;;
12625;SDS011;6378;42.684;23.372;2022-10-24T11:36:22;13.02;;;7.55;;
12625;SDS011;6378;42.684;23.372;2022-10-24T11:44:14;14.93;;;8.80;;
12625;SDS011;6378;42.684;23.372;2022-10-24T11:46:48;11.75;;;7.78;;
12625;SDS011;6378;42.684;23.372;2022-10-24T11:49:22;14.93;;;7.60;;
12625;SDS011;6378;42.684;23.372;2022-10-24T11:51:59;15.07;;;7.35;;
12625;SDS011;6378;42.684;23.372;2022-10-24T11:54:41;14.10;;;7.90;;
12625;SDS011;6378;42.684;23.372;2022-10-24T11:57:16;10.80;;;7.03;;
12625;SDS011;6378;42.684;23.372;2022-10-24T11:59:49;19.15;;;7.95;;
12625;SDS011;6378;42.684;23.372;2022-10-24T12:19:05;12.73;;;7.88;;
12625;SDS011;6378;42.684;23.372;2022-10-24T12:21:38;11.65;;;7.25;;
12625;SDS011;6378;42.684;23.372;2022-10-24T12:24:19;11.60;;;6.95;;
12625;SDS011;6378;42.684;23.372;2022-10-24T12:27:05;14.48;;;7.22;;
12625;SDS011;6378;42.684;23.372;2022-10-24T12:29:42;14.45;;;6.65;;
12625;SDS011;6378;42.684;23.372;2022-10-24T12:35:02;15.30;;;7.72;;
12625;SDS011;6378;42.684;23.372;2022-10-24T12:37:48;15.73;;;8.15;;
12625;SDS011;6378;42.684;23.372;2022-10-24T12:43:12;19.77;;;7.88;;
12625;SDS011;6378;42.684;23.372;2022-10-24T12:45:55;19.45;;;7.65;;
12625;SDS011;6378;42.684;23.372;2022-10-24T12:50:55;16.55;;;7.90;;
12625;SDS011;6378;42.684;23.372;2022-10-24T12:56:04;15.68;;;7.75;;
12625;SDS011;6378;42.684;23.372;2022-10-24T12:58:36;14.15;;;7.97;;
12625;SDS011;6378;42.684;23.372;2022-10-24T13:01:09;17.10;;;7.93;;
12625;SDS011;6378;42.684;23.372;2022-10-24T13:06:11;12.75;;;6.72;;
12625;SDS011;6378;42.684;23.372;2022-10-24T13:14:16;15.77;;;7.25;;
12625;SDS011;6378;42.684;23.372;2022-10-24T13:19:43;10.88;;;7.20;;
12625;SDS011;6378;42.684;23.372;2022-10-24T13:22:24;18.92;;;7.93;;
12625;SDS011;6378;42.684;23.372;2022-10-24T13:24:56;12.25;;;7.25;;
12625;SDS011;6378;42.684;23.372;2022-10-24T13:27:42;15.73;;;7.40;;
12625;SDS011;6378;42.684;23.372;2022-10-24T13:30:24;11.27;;;6.85;;
12625;SDS011;6378;42.684;23.372;2022-10-24T13:32:51;13.93;;;7.28;;
12625;SDS011;6378;42.684;23.372;2022-10-24T13:38:43;15.35;;;7.30;;
12625;SDS011;6378;42.684;23.372;2022-10-24T13:41:40;16.80;;;7.47;;
12625;SDS011;6378;42.684;23.372;2022-10-24T13:46:51;15.63;;;7.00;;
12625;SDS011;6378;42.684;23.372;2022-10-24T13:49:25;17.13;;;8.98;;
12625;SDS011;6378;42.684;23.372;2022-10-24T13:51:55;15.75;;;7.05;;
12625;SDS011;6378;42.684;23.372;2022-10-24T13:54:30;14.73;;;7.50;;
12625;SDS011;6378;42.684;23.372;2022-10-24T14:00:18;12.90;;;7.28;;
12625;SDS011;6378;42.684;23.372;2022-10-24T14:02:49;17.67;;;7.43;;
12625;SDS011;6378;42.684;23.372;2022-10-24T14:05:28;14.88;;;7.28;;
12625;SDS011;6378;42.684;23.372;2022-10-24T14:07:57;18.23;;;8.23;;
12625;SDS011;6378;42.684;23.372;2022-10-24T14:10:24;15.68;;;6.82;;
12625;SDS011;6378;42.684;23.372;2022-10-24T14:12:50;19.65;;;7.82;;
12625;SDS011;6378;42.684;23.372;2022-10-24T14:15:21;21.48;;;8.02;;
12625;SDS011;6378;42.684;23.372;2022-10-24T14:26:25;19.48;;;9.02;;
12625;SDS011;6378;42.684;23.372;2022-10-24T14:28:56;16.77;;;8.18;;
12625;SDS011;6378;42.684;23.372;2022-10-24T14:31:43;16.27;;;7.78;;
12625;SDS011;6378;42.684;23.372;2022-10-24T14:34:21;14.10;;;7.97;;
12625;SDS011;6378;42.684;23.372;2022-10-24T14:36:50;16.25;;;8.20;;
12625;SDS011;6378;42.684;23.372;2022-10-24T14:39:44;18.13;;;8.38;;
12625;SDS011;6378;42.684;23.372;2022-10-24T14:42:25;13.75;;;7.90;;
12625;SDS011;6378;42.684;23.372;2022-10-24T14:44:52;17.73;;;7.78;;
12625;SDS011;6378;42.684;23.372;2022-10-24T14:47:34;15.05;;;7.85;;
12625;SDS011;6378;42.684;23.372;2022-10-24T14:50:03;20.92;;;8.55;;
12625;SDS011;6378;42.684;23.372;2022-10-24T14:59:58;19.83;;;8.50;;
12625;SDS011;6378;42.684;23.372;2022-10-24T15:02:46;13.40;;;7.47;;
12625;SDS011;6378;42.684;23.372;2022-10-24T15:10:30;17.38;;;9.18;;
12625;SDS011;6378;42.684;23.372;2022-10-24T15:13:09;19.90;;;9.27;;
12625;SDS011;6378;42.684;23.372;2022-10-24T15:18:16;20.13;;;9.60;;
12625;SDS011;6378;42.684;23.372;2022-10-24T15:20:46;21.25;;;9.57;;
12625;SDS011;6378;42.684;23.372;2022-10-24T15:25:56;22.48;;;10.90;;
12625;SDS011;6378;42.684;23.372;2022-10-24T15:28:41;23.80;;;11.13;;
12625;SDS011;6378;42.684;23.372;2022-10-24T15:31:10;22.73;;;10.90;;
12625;SDS011;6378;42.684;23.372;2022-10-24T15:33:37;19.17;;;10.25;;
12625;SDS011;6378;42.684;23.372;2022-10-24T15:36:03;16.83;;;10.68;;
12625;SDS011;6378;42.684;23.372;2022-10-24T15:38:29;21.70;;;10.18;;
12625;SDS011;6378;42.684;23.372;2022-10-24T15:40:54;19.50;;;10.70;;
12625;SDS011;6378;42.684;23.372;2022-10-24T15:43:22;24.77;;;11.90;;
12625;SDS011;6378;42.684;23.372;2022-10-24T15:45:48;30.85;;;14.10;;
12625;SDS011;6378;42.684;23.372;2022-10-24T15:48:13;24.85;;;13.40;;
12625;SDS011;6378;42.684;23.372;2022-10-24T15:50:43;29.05;;;14.15;;
12625;SDS011;6378;42.684;23.372;2022-10-24T15:53:14;185.30;;;112.25;;
12625;SDS011;6378;42.684;23.372;2022-10-24T15:55:43;215.73;;;130.10;;
12625;SDS011;6378;42.684;23.372;2022-10-24T15:58:12;198.60;;;117.63;;
12625;SDS011;6378;42.684;23.372;2022-10-24T16:00:38;48.33;;;29.33;;
12625;SDS011;6378;42.684;23.372;2022-10-24T16:03:04;34.58;;;19.27;;
12625;SDS011;6378;42.684;23.372;2022-10-24T16:05:36;35.80;;;18.63;;
12625;SDS011;6378;42.684;23.372;2022-10-24T16:08:03;34.45;;;17.00;;
12625;SDS011;6378;42.684;23.372;2022-10-24T16:10:29;38.50;;;20.10;;
12625;SDS011;6378;42.684;23.372;2022-10-24T16:12:54;33.85;;;17.58;;
12625;SDS011;6378;42.684;23.372;2022-10-24T16:15:24;29.17;;;15.45;;
12625;SDS011;6378;42.684;23.372;2022-10-24T16:17:52;28.52;;;15.82;;
12625;SDS011;6378;42.684;23.372;2022-10-24T16:20:18;24.42;;;11.93;;
12625;SDS011;6378;42.684;23.372;2022-10-24T16:22:43;27.60;;;12.75;;
12625;SDS011;6378;42.684;23.372;2022-10-24T16:25:14;28.38;;;12.80;;
12625;SDS011;6378;42.684;23.372;2022-10-24T16:27:41;27.85;;;13.48;;
12625;SDS011;6378;42.684;23.372;2022-10-24T16:30:07;27.35;;;15.20;;
12625;SDS011;6378;42.684;23.372;2022-10-24T16:32:34;29.17;;;14.57;;
12625;SDS011;6378;42.684;23.372;2022-10-24T16:35:00;24.48;;;13.32;;
12625;SDS011;6378;42.684;23.372;2022-10-24T16:37:25;30.02;;;14.55;;
12625;SDS011;6378;42.684;23.372;2022-10-24T16:39:51;28.08;;;14.50;;
12625;SDS011;6378;42.684;23.372;2022-10-24T16:42:16;26.83;;;13.88;;
12625;SDS011;6378;42.684;23.372;2022-10-24T16:44:44;43.95;;;28.60;;
12625;SDS011;6378;42.684;23.372;2022-10-24T16:47:09;27.70;;;13.85;;
12625;SDS011;6378;42.684;23.372;2022-10-24T16:49:35;24.95;;;13.30;;
12625;SDS011;6378;42.684;23.372;2022-10-24T16:52:00;26.02;;;12.48;;
12625;SDS011;6378;42.684;23.372;2022-10-24T16:54:26;26.35;;;12.85;;
12625;SDS011;6378;42.684;23.372;2022-10-24T16:56:51;23.63;;;13.57;;
12625;SDS011;6378;42.684;23.372;2022-10-24T16:59:17;27.67;;;13.80;;
12625;SDS011;6378;42.684;23.372;2022-10-24T17:01:42;24.83;;;15.10;;
12625;SDS011;6378;42.684;23.372;2022-10-24T17:04:08;27.92;;;14.55;;
12625;SDS011;6378;42.684;23.372;2022-10-24T17:06:34;29.65;;;16.77;;
12625;SDS011;6378;42.684;23.372;2022-10-24T17:08:59;28.58;;;14.85;;
12625;SDS011;6378;42.684;23.372;2022-10-24T17:11:24;34.97;;;17.65;;
12625;SDS011;6378;42.684;23.372;2022-10-24T17:13:50;30.90;;;17.00;;
12625;SDS011;6378;42.684;23.372;2022-10-24T17:16:15;28.60;;;14.35;;